sensor_id;sensor_type;location;lat;lon;timestamp;P1;durP1;ratioP1;P2;durP2;ratioP2
48526;SDS011;34317;51.660;5.824;2023-06-14T00:01:03;6.97;;;4.78;;
48526;SDS011;34317;51.660;5.824;2023-06-14T00:03:33;9.68;;;4.70;;
48526;SDS011;34317;51.660;5.824;2023-06-14T00:06:00;10.30;;;5.03;;
48526;SDS011;34317;51.660;5.824;2023-06-14T00:08:27;7.75;;;4.57;;
48526;SDS011;34317;51.660;5.824;2023-06-14T00:10:54;10.63;;;5.00;;
48526;SDS011;34317;51.660;5.824;2023-06-14T00:13:22;10.10;;;4.97;;
48526;SDS011;34317;51.660;5.824;2023-06-14T00:15:50;10.77;;;4.80;;
48526;SDS011;34317;51.660;5.824;2023-06-14T00:18:22;7.05;;;4.65;;
48526;SDS011;34317;51.660;5.824;2023-06-14T00:20:56;7.32;;;3.85;;
48526;SDS011;34317;51.660;5.824;2023-06-14T00:23:23;5.88;;;4.07;;
48526;SDS011;34317;51.660;5.824;2023-06-14T00:25:51;8.13;;;4.13;;
48526;SDS011;34317;51.660;5.824;2023-06-14T00:28:18;6.85;;;4.90;;
48526;SDS011;34317;51.660;5.824;2023-06-14T00:30:45;6.78;;;4.05;;
48526;SDS011;34317;51.660;5.824;2023-06-14T00:33:13;9.02;;;3.95;;
48526;SDS011;34317;51.660;5.824;2023-06-14T00:35:43;7.57;;;4.05;;
48526;SDS011;34317;51.660;5.824;2023-06-14T00:38:10;8.27;;;4.10;;
48526;SDS011;34317;51.660;5.824;2023-06-14T00:40:40;6.22;;;3.83;;
48526;SDS011;34317;51.660;5.824;2023-06-14T00:43:07;9.80;;;4.18;;
48526;SDS011;34317;51.660;5.824;2023-06-14T00:45:35;8.23;;;4.10;;
48526;SDS011;34317;51.660;5.824;2023-06-14T00:48:03;6.65;;;4.18;;
48526;SDS011;34317;51.660;5.824;2023-06-14T00:50:33;7.15;;;4.30;;
48526;SDS011;34317;51.660;5.824;2023-06-14T00:53:01;6.05;;;3.92;;
48526;SDS011;34317;51.660;5.824;2023-06-14T00:55:28;8.65;;;3.88;;
48526;SDS011;34317;51.660;5.824;2023-06-14T00:57:55;5.90;;;3.58;;
48526;SDS011;34317;51.660;5.824;2023-06-14T01:00:23;7.70;;;3.83;;
48526;SDS011;34317;51.660;5.824;2023-06-14T01:02:54;8.20;;;4.00;;
48526;SDS011;34317;51.660;5.824;2023-06-14T01:05:22;8.60;;;3.78;;
48526;SDS011;34317;51.660;5.824;2023-06-14T01:08:11;8.63;;;3.90;;
48526;SDS011;34317;51.660;5.824;2023-06-14T01:10:47;6.32;;;3.72;;
48526;SDS011;34317;51.660;5.824;2023-06-14T01:13:29;5.78;;;3.83;;
48526;SDS011;34317;51.660;5.824;2023-06-14T01:16:00;7.97;;;3.53;;
48526;SDS011;34317;51.660;5.824;2023-06-14T01:18:30;6.88;;;3.53;;
48526;SDS011;34317;51.660;5.824;2023-06-14T01:21:01;9.02;;;3.60;;
48526;SDS011;34317;51.660;5.824;2023-06-14T01:23:32;6.68;;;4.00;;
48526;SDS011;34317;51.660;5.824;2023-06-14T01:26:01;7.75;;;3.97;;
48526;SDS011;34317;51.660;5.824;2023-06-14T01:28:30;8.73;;;3.80;;
48526;SDS011;34317;51.660;5.824;2023-06-14T01:31:01;7.70;;;3.78;;
48526;SDS011;34317;51.660;5.824;2023-06-14T01:33:33;7.80;;;3.97;;
48526;SDS011;34317;51.660;5.824;2023-06-14T01:36:02;6.00;;;3.70;;
48526;SDS011;34317;51.660;5.824;2023-06-14T01:38:32;8.35;;;3.72;;
48526;SDS011;34317;51.660;5.824;2023-06-14T01:41:00;5.20;;;3.55;;
48526;SDS011;34317;51.660;5.824;2023-06-14T01:43:32;5.80;;;3.90;;
48526;SDS011;34317;51.660;5.824;2023-06-14T01:46:04;6.30;;;3.65;;
48526;SDS011;34317;51.660;5.824;2023-06-14T01:48:33;6.80;;;3.72;;
48526;SDS011;34317;51.660;5.824;2023-06-14T01:51:03;5.72;;;3.45;;
48526;SDS011;34317;51.660;5.824;2023-06-14T01:53:30;6.32;;;4.10;;
48526;SDS011;34317;51.660;5.824;2023-06-14T01:55:58;6.18;;;3.58;;
48526;SDS011;34317;51.660;5.824;2023-06-14T01:58:25;6.88;;;3.85;;
48526;SDS011;34317;51.660;5.824;2023-06-14T02:00:53;5.38;;;3.80;;
48526;SDS011;34317;51.660;5.824;2023-06-14T02:03:23;7.32;;;3.97;;
48526;SDS011;34317;51.660;5.824;2023-06-14T02:05:52;6.00;;;3.67;;
48526;SDS011;34317;51.660;5.824;2023-06-14T02:08:19;6.75;;;3.92;;
48526;SDS011;34317;51.660;5.824;2023-06-14T02:10:46;10.48;;;3.83;;
48526;SDS011;34317;51.660;5.824;2023-06-14T02:13:14;5.30;;;3.83;;
48526;SDS011;34317;51.660;5.824;2023-06-14T02:15:41;5.25;;;3.72;;
48526;SDS011;34317;51.660;5.824;2023-06-14T02:18:11;11.48;;;3.92;;
48526;SDS011;34317;51.660;5.824;2023-06-14T02:20:39;6.60;;;4.20;;
48526;SDS011;34317;51.660;5.824;2023-06-14T02:23:06;8.68;;;4.03;;
48526;SDS011;34317;51.660;5.824;2023-06-14T02:25:35;6.88;;;3.65;;
48526;SDS011;34317;51.660;5.824;2023-06-14T02:28:02;12.43;;;4.15;;
48526;SDS011;34317;51.660;5.824;2023-06-14T02:30:31;5.97;;;3.65;;
48526;SDS011;34317;51.660;5.824;2023-06-14T02:32:58;6.85;;;4.03;;
48526;SDS011;34317;51.660;5.824;2023-06-14T02:35:26;6.47;;;3.67;;
48526;SDS011;34317;51.660;5.824;2023-06-14T02:37:55;5.97;;;3.30;;
48526;SDS011;34317;51.660;5.824;2023-06-14T02:40:22;6.82;;;3.85;;
48526;SDS011;34317;51.660;5.824;2023-06-14T02:42:50;8.77;;;4.00;;
48526;SDS011;34317;51.660;5.824;2023-06-14T02:45:17;5.82;;;3.60;;
48526;SDS011;34317;51.660;5.824;2023-06-14T02:47:45;8.25;;;4.30;;
48526;SDS011;34317;51.660;5.824;2023-06-14T02:50:13;6.10;;;3.75;;
48526;SDS011;34317;51.660;5.824;2023-06-14T02:52:41;5.15;;;3.42;;
48526;SDS011;34317;51.660;5.824;2023-06-14T02:55:09;6.05;;;3.80;;
48526;SDS011;34317;51.660;5.824;2023-06-14T02:57:37;6.47;;;3.72;;
48526;SDS011;34317;51.660;5.824;2023-06-14T03:00:07;6.10;;;3.83;;
48526;SDS011;34317;51.660;5.824;2023-06-14T03:05:11;6.20;;;3.83;;
48526;SDS011;34317;51.660;5.824;2023-06-14T03:07:39;8.32;;;4.05;;
48526;SDS011;34317;51.660;5.824;2023-06-14T03:10:12;7.10;;;3.75;;
48526;SDS011;34317;51.660;5.824;2023-06-14T03:12:43;8.93;;;4.20;;
48526;SDS011;34317;51.660;5.824;2023-06-14T03:15:11;5.75;;;3.90;;
48526;SDS011;34317;51.660;5.824;2023-06-14T03:17:43;7.47;;;3.70;;
48526;SDS011;34317;51.660;5.824;2023-06-14T03:20:14;5.25;;;3.58;;
48526;SDS011;34317;51.660;5.824;2023-06-14T03:22:43;7.32;;;3.40;;
48526;SDS011;34317;51.660;5.824;2023-06-14T03:25:13;12.13;;;3.78;;
48526;SDS011;34317;51.660;5.824;2023-06-14T03:27:42;5.05;;;3.47;;
48526;SDS011;34317;51.660;5.824;2023-06-14T03:30:09;6.55;;;3.75;;
48526;SDS011;34317;51.660;5.824;2023-06-14T03:32:38;5.78;;;3.50;;
48526;SDS011;34317;51.660;5.824;2023-06-14T03:35:06;8.95;;;4.07;;
48526;SDS011;34317;51.660;5.824;2023-06-14T03:37:34;6.10;;;3.65;;
48526;SDS011;34317;51.660;5.824;2023-06-14T03:40:01;10.27;;;4.15;;
48526;SDS011;34317;51.660;5.824;2023-06-14T03:42:38;9.10;;;3.67;;
48526;SDS011;34317;51.660;5.824;2023-06-14T03:45:06;7.47;;;3.58;;
48526;SDS011;34317;51.660;5.824;2023-06-14T03:47:34;6.45;;;3.58;;
48526;SDS011;34317;51.660;5.824;2023-06-14T03:50:02;8.40;;;3.70;;
48526;SDS011;34317;51.660;5.824;2023-06-14T03:52:31;5.55;;;3.42;;
48526;SDS011;34317;51.660;5.824;2023-06-14T03:54:59;10.52;;;3.83;;
48526;SDS011;34317;51.660;5.824;2023-06-14T03:57:31;7.15;;;3.90;;
48526;SDS011;34317;51.660;5.824;2023-06-14T03:59:59;6.53;;;3.85;;
48526;SDS011;34317;51.660;5.824;2023-06-14T04:02:27;8.15;;;3.97;;
48526;SDS011;34317;51.660;5.824;2023-06-14T04:04:58;8.77;;;3.95;;
48526;SDS011;34317;51.660;5.824;2023-06-14T04:07:43;9.05;;;3.75;;
48526;SDS011;34317;51.660;5.824;2023-06-14T04:10:15;7.15;;;3.60;;
48526;SDS011;34317;51.660;5.824;2023-06-14T04:12:44;4.78;;;3.33;;
48526;SDS011;34317;51.660;5.824;2023-06-14T04:15:12;7.75;;;3.30;;
48526;SDS011;34317;51.660;5.824;2023-06-14T04:17:49;4.35;;;3.28;;
48526;SDS011;34317;51.660;5.824;2023-06-14T04:20:19;5.63;;;3.15;;
48526;SDS011;34317;51.660;5.824;2023-06-14T04:22:47;7.32;;;3.53;;
48526;SDS011;34317;51.660;5.824;2023-06-14T04:25:14;8.30;;;3.28;;
48526;SDS011;34317;51.660;5.824;2023-06-14T04:27:43;7.18;;;3.67;;
48526;SDS011;34317;51.660;5.824;2023-06-14T04:30:11;5.32;;;3.45;;
48526;SDS011;34317;51.660;5.824;2023-06-14T04:32:45;6.83;;;3.37;;
48526;SDS011;34317;51.660;5.824;2023-06-14T04:35:16;4.75;;;2.90;;
48526;SDS011;34317;51.660;5.824;2023-06-14T04:37:45;7.10;;;3.40;;
48526;SDS011;34317;51.660;5.824;2023-06-14T04:40:13;7.35;;;3.80;;
48526;SDS011;34317;51.660;5.824;2023-06-14T04:42:40;7.85;;;3.60;;
48526;SDS011;34317;51.660;5.824;2023-06-14T04:45:11;4.80;;;3.30;;
48526;SDS011;34317;51.660;5.824;2023-06-14T04:47:40;6.00;;;3.08;;
48526;SDS011;34317;51.660;5.824;2023-06-14T04:50:09;7.22;;;3.30;;
48526;SDS011;34317;51.660;5.824;2023-06-14T04:52:40;4.10;;;3.13;;
48526;SDS011;34317;51.660;5.824;2023-06-14T04:55:09;6.18;;;3.70;;
48526;SDS011;34317;51.660;5.824;2023-06-14T04:57:37;5.95;;;3.22;;
48526;SDS011;34317;51.660;5.824;2023-06-14T05:00:06;7.95;;;3.30;;
48526;SDS011;34317;51.660;5.824;2023-06-14T05:02:34;4.07;;;2.90;;
48526;SDS011;34317;51.660;5.824;2023-06-14T05:05:03;6.45;;;3.55;;
48526;SDS011;34317;51.660;5.824;2023-06-14T05:07:33;6.25;;;3.17;;
48526;SDS011;34317;51.660;5.824;2023-06-14T05:10:01;5.53;;;3.15;;
48526;SDS011;34317;51.660;5.824;2023-06-14T05:12:28;4.78;;;2.88;;
48526;SDS011;34317;51.660;5.824;2023-06-14T05:14:56;7.47;;;3.15;;
48526;SDS011;34317;51.660;5.824;2023-06-14T05:17:25;6.38;;;3.38;;
48526;SDS011;34317;51.660;5.824;2023-06-14T05:19:55;10.50;;;3.42;;
48526;SDS011;34317;51.660;5.824;2023-06-14T05:22:22;5.75;;;3.00;;
48526;SDS011;34317;51.660;5.824;2023-06-14T05:24:50;5.55;;;3.20;;
48526;SDS011;34317;51.660;5.824;2023-06-14T05:27:17;6.70;;;3.17;;
48526;SDS011;34317;51.660;5.824;2023-06-14T05:29:44;9.13;;;3.22;;
48526;SDS011;34317;51.660;5.824;2023-06-14T05:32:12;4.13;;;3.17;;
48526;SDS011;34317;51.660;5.824;2023-06-14T05:34:39;6.32;;;3.10;;
48526;SDS011;34317;51.660;5.824;2023-06-14T05:37:06;4.53;;;3.05;;
48526;SDS011;34317;51.660;5.824;2023-06-14T05:39:34;5.47;;;2.83;;
48526;SDS011;34317;51.660;5.824;2023-06-14T05:42:01;5.88;;;3.10;;
48526;SDS011;34317;51.660;5.824;2023-06-14T05:44:28;4.80;;;3.08;;
48526;SDS011;34317;51.660;5.824;2023-06-14T05:46:55;11.10;;;3.20;;
48526;SDS011;34317;51.660;5.824;2023-06-14T05:49:22;6.50;;;3.00;;
48526;SDS011;34317;51.660;5.824;2023-06-14T05:51:50;6.05;;;2.80;;
48526;SDS011;34317;51.660;5.824;2023-06-14T05:54:18;6.35;;;3.17;;
48526;SDS011;34317;51.660;5.824;2023-06-14T05:56:45;7.32;;;3.25;;
48526;SDS011;34317;51.660;5.824;2023-06-14T05:59:12;6.22;;;3.20;;
48526;SDS011;34317;51.660;5.824;2023-06-14T06:01:39;3.60;;;3.05;;
48526;SDS011;34317;51.660;5.824;2023-06-14T06:04:09;6.90;;;3.15;;
48526;SDS011;34317;51.660;5.824;2023-06-14T06:06:36;8.40;;;3.67;;
48526;SDS011;34317;51.660;5.824;2023-06-14T06:09:03;4.45;;;3.08;;
48526;SDS011;34317;51.660;5.824;2023-06-14T06:11:31;5.65;;;2.92;;
48526;SDS011;34317;51.660;5.824;2023-06-14T06:14:18;6.05;;;2.90;;
48526;SDS011;34317;51.660;5.824;2023-06-14T06:16:45;7.32;;;3.10;;
48526;SDS011;34317;51.660;5.824;2023-06-14T06:19:12;4.70;;;2.60;;
48526;SDS011;34317;51.660;5.824;2023-06-14T06:21:40;6.65;;;3.80;;
48526;SDS011;34317;51.660;5.824;2023-06-14T06:24:07;6.15;;;3.13;;
48526;SDS011;34317;51.660;5.824;2023-06-14T06:26:35;5.20;;;3.33;;
48526;SDS011;34317;51.660;5.824;2023-06-14T06:29:02;4.18;;;2.90;;
48526;SDS011;34317;51.660;5.824;2023-06-14T06:31:29;6.03;;;3.05;;
48526;SDS011;34317;51.660;5.824;2023-06-14T06:33:57;9.43;;;3.40;;
48526;SDS011;34317;51.660;5.824;2023-06-14T06:36:24;4.45;;;3.13;;
48526;SDS011;34317;51.660;5.824;2023-06-14T06:38:51;4.97;;;2.63;;
48526;SDS011;34317;51.660;5.824;2023-06-14T06:41:18;7.57;;;3.08;;
48526;SDS011;34317;51.660;5.824;2023-06-14T06:43:46;6.68;;;2.72;;
48526;SDS011;34317;51.660;5.824;2023-06-14T06:46:16;33.28;;;4.40;;
48526;SDS011;34317;51.660;5.824;2023-06-14T06:48:45;7.80;;;3.00;;
48526;SDS011;34317;51.660;5.824;2023-06-14T06:51:12;10.07;;;3.10;;
48526;SDS011;34317;51.660;5.824;2023-06-14T06:53:41;5.60;;;2.80;;
48526;SDS011;34317;51.660;5.824;2023-06-14T06:56:15;5.90;;;2.80;;
48526;SDS011;34317;51.660;5.824;2023-06-14T06:58:42;5.57;;;2.78;;
48526;SDS011;34317;51.660;5.824;2023-06-14T07:01:09;4.80;;;2.92;;
48526;SDS011;34317;51.660;5.824;2023-06-14T07:03:37;6.65;;;3.17;;
48526;SDS011;34317;51.660;5.824;2023-06-14T07:06:04;8.38;;;3.00;;
48526;SDS011;34317;51.660;5.824;2023-06-14T07:08:32;5.43;;;2.63;;
48526;SDS011;34317;51.660;5.824;2023-06-14T07:10:59;4.93;;;2.90;;
48526;SDS011;34317;51.660;5.824;2023-06-14T07:13:26;6.78;;;2.60;;
48526;SDS011;34317;51.660;5.824;2023-06-14T07:15:54;4.07;;;2.45;;
48526;SDS011;34317;51.660;5.824;2023-06-14T07:18:22;5.35;;;2.95;;
48526;SDS011;34317;51.660;5.824;2023-06-14T07:20:49;4.93;;;2.50;;
48526;SDS011;34317;51.660;5.824;2023-06-14T07:23:17;4.00;;;2.38;;
48526;SDS011;34317;51.660;5.824;2023-06-14T07:25:44;5.47;;;2.63;;
48526;SDS011;34317;51.660;5.824;2023-06-14T07:28:11;4.40;;;2.60;;
48526;SDS011;34317;51.660;5.824;2023-06-14T07:30:39;9.07;;;2.65;;
48526;SDS011;34317;51.660;5.824;2023-06-14T07:33:06;4.90;;;2.67;;
48526;SDS011;34317;51.660;5.824;2023-06-14T07:35:35;6.15;;;2.42;;
48526;SDS011;34317;51.660;5.824;2023-06-14T07:38:02;5.30;;;2.78;;
48526;SDS011;34317;51.660;5.824;2023-06-14T07:40:29;6.05;;;2.40;;
48526;SDS011;34317;51.660;5.824;2023-06-14T07:42:57;5.25;;;2.50;;
48526;SDS011;34317;51.660;5.824;2023-06-14T07:45:24;4.35;;;2.10;;
48526;SDS011;34317;51.660;5.824;2023-06-14T07:47:51;3.17;;;2.13;;
48526;SDS011;34317;51.660;5.824;2023-06-14T07:50:19;3.42;;;2.05;;
48526;SDS011;34317;51.660;5.824;2023-06-14T07:52:46;3.65;;;2.10;;
48526;SDS011;34317;51.660;5.824;2023-06-14T07:55:15;4.95;;;2.00;;
48526;SDS011;34317;51.660;5.824;2023-06-14T07:57:42;3.00;;;2.05;;
48526;SDS011;34317;51.660;5.824;2023-06-14T08:00:11;4.80;;;2.30;;
48526;SDS011;34317;51.660;5.824;2023-06-14T08:02:42;6.25;;;1.88;;
48526;SDS011;34317;51.660;5.824;2023-06-14T08:05:10;2.45;;;1.88;;
48526;SDS011;34317;51.660;5.824;2023-06-14T08:07:40;2.15;;;1.60;;
48526;SDS011;34317;51.660;5.824;2023-06-14T08:10:08;2.38;;;1.65;;
48526;SDS011;34317;51.660;5.824;2023-06-14T08:12:35;5.72;;;1.67;;
48526;SDS011;34317;51.660;5.824;2023-06-14T08:15:04;3.53;;;1.70;;
48526;SDS011;34317;51.660;5.824;2023-06-14T08:17:34;2.85;;;1.60;;
48526;SDS011;34317;51.660;5.824;2023-06-14T08:20:02;2.58;;;1.50;;
48526;SDS011;34317;51.660;5.824;2023-06-14T08:22:33;3.60;;;1.45;;
48526;SDS011;34317;51.660;5.824;2023-06-14T08:25:01;2.25;;;1.30;;
48526;SDS011;34317;51.660;5.824;2023-06-14T08:27:28;3.35;;;1.27;;
48526;SDS011;34317;51.660;5.824;2023-06-14T08:29:56;2.83;;;1.25;;
48526;SDS011;34317;51.660;5.824;2023-06-14T08:32:24;5.35;;;1.48;;
48526;SDS011;34317;51.660;5.824;2023-06-14T08:34:51;2.90;;;1.60;;
48526;SDS011;34317;51.660;5.824;2023-06-14T08:37:31;2.85;;;1.30;;
48526;SDS011;34317;51.660;5.824;2023-06-14T08:40:00;4.03;;;1.20;;
48526;SDS011;34317;51.660;5.824;2023-06-14T08:42:30;2.70;;;1.27;;
48526;SDS011;34317;51.660;5.824;2023-06-14T08:45:00;3.60;;;1.30;;
48526;SDS011;34317;51.660;5.824;2023-06-14T08:47:27;3.53;;;1.30;;
48526;SDS011;34317;51.660;5.824;2023-06-14T08:49:56;2.03;;;1.20;;
48526;SDS011;34317;51.660;5.824;2023-06-14T08:52:25;1.38;;;1.02;;
48526;SDS011;34317;51.660;5.824;2023-06-14T08:54:57;4.50;;;1.30;;
48526;SDS011;34317;51.660;5.824;2023-06-14T08:57:26;13.18;;;1.90;;
48526;SDS011;34317;51.660;5.824;2023-06-14T08:59:57;2.05;;;1.30;;
48526;SDS011;34317;51.660;5.824;2023-06-14T09:02:28;1.77;;;1.30;;
48526;SDS011;34317;51.660;5.824;2023-06-14T09:04:56;1.75;;;1.13;;
48526;SDS011;34317;51.660;5.824;2023-06-14T09:07:27;2.30;;;1.30;;
48526;SDS011;34317;51.660;5.824;2023-06-14T09:10:09;4.00;;;1.30;;
48526;SDS011;34317;51.660;5.824;2023-06-14T09:12:38;10.13;;;1.60;;
48526;SDS011;34317;51.660;5.824;2023-06-14T09:15:06;4.18;;;1.42;;
48526;SDS011;34317;51.660;5.824;2023-06-14T09:17:35;2.33;;;1.40;;
48526;SDS011;34317;51.660;5.824;2023-06-14T09:20:04;2.10;;;1.50;;
48526;SDS011;34317;51.660;5.824;2023-06-14T09:22:41;3.25;;;1.63;;
48526;SDS011;34317;51.660;5.824;2023-06-14T09:25:08;3.10;;;1.50;;
48526;SDS011;34317;51.660;5.824;2023-06-14T09:27:47;3.72;;;1.58;;
48526;SDS011;34317;51.660;5.824;2023-06-14T09:30:15;3.58;;;1.65;;
48526;SDS011;34317;51.660;5.824;2023-06-14T09:32:42;1.77;;;1.42;;
48526;SDS011;34317;51.660;5.824;2023-06-14T09:35:09;5.68;;;1.60;;
48526;SDS011;34317;51.660;5.824;2023-06-14T09:37:37;2.85;;;1.40;;
48526;SDS011;34317;51.660;5.824;2023-06-14T09:40:05;5.47;;;1.63;;
48526;SDS011;34317;51.660;5.824;2023-06-14T09:42:33;2.00;;;1.42;;
48526;SDS011;34317;51.660;5.824;2023-06-14T09:45:02;3.17;;;1.40;;
48526;SDS011;34317;51.660;5.824;2023-06-14T09:47:30;3.67;;;1.45;;
48526;SDS011;34317;51.660;5.824;2023-06-14T09:49:58;2.97;;;1.52;;
48526;SDS011;34317;51.660;5.824;2023-06-14T09:52:27;3.90;;;1.55;;
48526;SDS011;34317;51.660;5.824;2023-06-14T09:54:54;4.47;;;1.80;;
48526;SDS011;34317;51.660;5.824;2023-06-14T09:57:22;3.45;;;1.60;;
48526;SDS011;34317;51.660;5.824;2023-06-14T09:59:52;3.05;;;1.80;;
48526;SDS011;34317;51.660;5.824;2023-06-14T10:04:53;2.45;;;1.50;;
48526;SDS011;34317;51.660;5.824;2023-06-14T10:07:32;6.20;;;1.58;;
48526;SDS011;34317;51.660;5.824;2023-06-14T10:10:02;2.13;;;1.50;;
48526;SDS011;34317;51.660;5.824;2023-06-14T10:12:29;2.75;;;1.50;;
48526;SDS011;34317;51.660;5.824;2023-06-14T10:14:57;4.88;;;1.80;;
48526;SDS011;34317;51.660;5.824;2023-06-14T10:20:39;3.08;;;1.83;;
48526;SDS011;34317;51.660;5.824;2023-06-14T10:23:22;3.78;;;1.60;;
48526;SDS011;34317;51.660;5.824;2023-06-14T10:25:56;4.97;;;1.77;;
48526;SDS011;34317;51.660;5.824;2023-06-14T10:28:24;3.60;;;1.58;;
48526;SDS011;34317;51.660;5.824;2023-06-14T10:31:06;2.42;;;1.60;;
48526;SDS011;34317;51.660;5.824;2023-06-14T10:33:39;4.55;;;1.45;;
48526;SDS011;34317;51.660;5.824;2023-06-14T10:36:27;2.25;;;1.40;;
48526;SDS011;34317;51.660;5.824;2023-06-14T10:39:01;1.70;;;1.30;;
48526;SDS011;34317;51.660;5.824;2023-06-14T10:41:31;2.80;;;1.40;;
48526;SDS011;34317;51.660;5.824;2023-06-14T10:46:47;3.05;;;1.40;;
48526;SDS011;34317;51.660;5.824;2023-06-14T10:49:41;2.40;;;1.45;;
48526;SDS011;34317;51.660;5.824;2023-06-14T10:52:13;2.50;;;1.40;;
48526;SDS011;34317;51.660;5.824;2023-06-14T10:54:55;3.88;;;1.50;;
48526;SDS011;34317;51.660;5.824;2023-06-14T10:57:25;4.43;;;1.38;;
48526;SDS011;34317;51.660;5.824;2023-06-14T10:59:53;3.78;;;1.30;;
48526;SDS011;34317;51.660;5.824;2023-06-14T11:04:49;3.47;;;1.42;;
48526;SDS011;34317;51.660;5.824;2023-06-14T11:13:00;3.55;;;1.48;;
48526;SDS011;34317;51.660;5.824;2023-06-14T11:15:31;2.22;;;1.08;;
48526;SDS011;34317;51.660;5.824;2023-06-14T11:18:00;1.70;;;1.27;;
48526;SDS011;34317;51.660;5.824;2023-06-14T11:20:30;2.08;;;1.38;;
48526;SDS011;34317;51.660;5.824;2023-06-14T11:22:59;4.88;;;1.48;;
48526;SDS011;34317;51.660;5.824;2023-06-14T11:25:26;3.28;;;1.55;;
48526;SDS011;34317;51.660;5.824;2023-06-14T11:27:57;3.60;;;1.40;;
48526;SDS011;34317;51.660;5.824;2023-06-14T11:30:25;1.58;;;1.20;;
48526;SDS011;34317;51.660;5.824;2023-06-14T11:32:53;3.45;;;1.33;;
48526;SDS011;34317;51.660;5.824;2023-06-14T11:35:25;2.65;;;1.40;;
48526;SDS011;34317;51.660;5.824;2023-06-14T11:37:56;1.90;;;1.42;;
48526;SDS011;34317;51.660;5.824;2023-06-14T11:40:24;2.88;;;1.50;;
48526;SDS011;34317;51.660;5.824;2023-06-14T11:42:59;2.15;;;1.60;;
48526;SDS011;34317;51.660;5.824;2023-06-14T11:45:29;4.72;;;1.25;;
48526;SDS011;34317;51.660;5.824;2023-06-14T11:47:58;1.95;;;1.30;;
48526;SDS011;34317;51.660;5.824;2023-06-14T11:50:28;2.15;;;1.42;;
48526;SDS011;34317;51.660;5.824;2023-06-14T11:52:55;2.72;;;1.40;;
48526;SDS011;34317;51.660;5.824;2023-06-14T11:55:25;2.55;;;1.40;;
48526;SDS011;34317;51.660;5.824;2023-06-14T11:57:56;2.40;;;1.70;;
48526;SDS011;34317;51.660;5.824;2023-06-14T12:00:26;2.25;;;1.40;;
48526;SDS011;34317;51.660;5.824;2023-06-14T12:02:55;2.63;;;1.40;;
48526;SDS011;34317;51.660;5.824;2023-06-14T12:05:25;2.75;;;1.33;;
48526;SDS011;34317;51.660;5.824;2023-06-14T12:08:01;5.90;;;1.80;;
48526;SDS011;34317;51.660;5.824;2023-06-14T12:10:29;4.45;;;1.80;;
48526;SDS011;34317;51.660;5.824;2023-06-14T12:12:58;3.03;;;1.42;;
48526;SDS011;34317;51.660;5.824;2023-06-14T12:15:29;11.95;;;1.75;;
48526;SDS011;34317;51.660;5.824;2023-06-14T12:17:59;2.45;;;1.30;;
48526;SDS011;34317;51.660;5.824;2023-06-14T12:20:30;2.63;;;1.30;;
48526;SDS011;34317;51.660;5.824;2023-06-14T12:22:58;4.32;;;1.70;;
48526;SDS011;34317;51.660;5.824;2023-06-14T12:25:31;3.70;;;1.67;;
48526;SDS011;34317;51.660;5.824;2023-06-14T12:28:04;2.45;;;1.30;;
48526;SDS011;34317;51.660;5.824;2023-06-14T12:30:33;2.65;;;1.67;;
48526;SDS011;34317;51.660;5.824;2023-06-14T12:33:05;4.20;;;1.30;;
48526;SDS011;34317;51.660;5.824;2023-06-14T12:35:33;1.60;;;1.30;;
48526;SDS011;34317;51.660;5.824;2023-06-14T12:38:00;2.67;;;1.27;;
48526;SDS011;34317;51.660;5.824;2023-06-14T12:40:27;5.57;;;1.52;;
48526;SDS011;34317;51.660;5.824;2023-06-14T12:42:55;2.22;;;1.33;;
48526;SDS011;34317;51.660;5.824;2023-06-14T12:45:22;4.68;;;1.30;;
48526;SDS011;34317;51.660;5.824;2023-06-14T12:47:50;3.88;;;1.25;;
48526;SDS011;34317;51.660;5.824;2023-06-14T12:50:18;1.88;;;1.10;;
48526;SDS011;34317;51.660;5.824;2023-06-14T12:52:48;4.55;;;1.27;;
48526;SDS011;34317;51.660;5.824;2023-06-14T12:55:16;5.10;;;1.38;;
48526;SDS011;34317;51.660;5.824;2023-06-14T12:57:43;3.20;;;1.38;;
48526;SDS011;34317;51.660;5.824;2023-06-14T13:00:10;2.50;;;1.50;;
48526;SDS011;34317;51.660;5.824;2023-06-14T13:02:40;2.45;;;1.45;;
48526;SDS011;34317;51.660;5.824;2023-06-14T13:05:07;2.97;;;1.30;;
48526;SDS011;34317;51.660;5.824;2023-06-14T13:07:35;1.77;;;1.15;;
48526;SDS011;34317;51.660;5.824;2023-06-14T13:10:02;1.30;;;1.10;;
48526;SDS011;34317;51.660;5.824;2023-06-14T13:12:29;5.40;;;1.38;;
48526;SDS011;34317;51.660;5.824;2023-06-14T13:14:57;1.92;;;1.20;;
48526;SDS011;34317;51.660;5.824;2023-06-14T13:17:24;2.42;;;1.17;;
48526;SDS011;34317;51.660;5.824;2023-06-14T13:19:51;3.33;;;1.10;;
48526;SDS011;34317;51.660;5.824;2023-06-14T13:22:18;4.07;;;1.00;;
48526;SDS011;34317;51.660;5.824;2023-06-14T13:24:46;2.03;;;0.95;;
48526;SDS011;34317;51.660;5.824;2023-06-14T13:27:13;2.50;;;1.00;;
48526;SDS011;34317;51.660;5.824;2023-06-14T13:29:42;1.13;;;0.80;;
48526;SDS011;34317;51.660;5.824;2023-06-14T13:32:09;2.05;;;0.80;;
48526;SDS011;34317;51.660;5.824;2023-06-14T13:34:36;2.20;;;0.98;;
48526;SDS011;34317;51.660;5.824;2023-06-14T13:37:04;1.42;;;0.90;;
48526;SDS011;34317;51.660;5.824;2023-06-14T13:39:32;1.45;;;0.90;;
48526;SDS011;34317;51.660;5.824;2023-06-14T13:41:59;3.60;;;1.10;;
48526;SDS011;34317;51.660;5.824;2023-06-14T13:44:26;1.05;;;0.85;;
48526;SDS011;34317;51.660;5.824;2023-06-14T13:46:53;5.13;;;0.93;;
48526;SDS011;34317;51.660;5.824;2023-06-14T13:49:21;4.40;;;1.00;;
48526;SDS011;34317;51.660;5.824;2023-06-14T13:51:48;2.78;;;1.00;;
48526;SDS011;34317;51.660;5.824;2023-06-14T13:54:17;1.77;;;1.00;;
48526;SDS011;34317;51.660;5.824;2023-06-14T13:56:47;2.28;;;1.00;;
48526;SDS011;34317;51.660;5.824;2023-06-14T13:59:14;1.63;;;1.00;;
48526;SDS011;34317;51.660;5.824;2023-06-14T14:01:43;2.85;;;1.20;;
48526;SDS011;34317;51.660;5.824;2023-06-14T14:04:10;1.40;;;0.90;;
48526;SDS011;34317;51.660;5.824;2023-06-14T14:06:38;2.03;;;0.90;;
48526;SDS011;34317;51.660;5.824;2023-06-14T14:09:05;1.90;;;1.20;;
48526;SDS011;34317;51.660;5.824;2023-06-14T14:11:32;2.67;;;1.27;;
48526;SDS011;34317;51.660;5.824;2023-06-14T14:14:00;2.40;;;0.90;;
48526;SDS011;34317;51.660;5.824;2023-06-14T14:16:29;3.08;;;1.10;;
48526;SDS011;34317;51.660;5.824;2023-06-14T14:18:57;2.05;;;1.23;;
48526;SDS011;34317;51.660;5.824;2023-06-14T14:21:24;6.00;;;1.40;;
48526;SDS011;34317;51.660;5.824;2023-06-14T14:23:52;2.75;;;1.10;;
48526;SDS011;34317;51.660;5.824;2023-06-14T14:26:19;1.70;;;1.08;;
48526;SDS011;34317;51.660;5.824;2023-06-14T14:28:47;3.05;;;1.02;;
48526;SDS011;34317;51.660;5.824;2023-06-14T14:31:14;3.00;;;1.10;;
48526;SDS011;34317;51.660;5.824;2023-06-14T14:33:41;1.48;;;0.95;;
48526;SDS011;34317;51.660;5.824;2023-06-14T14:36:09;2.33;;;1.10;;
48526;SDS011;34317;51.660;5.824;2023-06-14T14:38:36;2.78;;;1.15;;
48526;SDS011;34317;51.660;5.824;2023-06-14T14:41:03;3.03;;;1.05;;
48526;SDS011;34317;51.660;5.824;2023-06-14T14:43:31;1.75;;;1.40;;
48526;SDS011;34317;51.660;5.824;2023-06-14T14:45:59;3.13;;;1.10;;
48526;SDS011;34317;51.660;5.824;2023-06-14T14:48:26;1.85;;;1.08;;
48526;SDS011;34317;51.660;5.824;2023-06-14T14:50:53;2.83;;;1.33;;
48526;SDS011;34317;51.660;5.824;2023-06-14T14:53:20;1.67;;;0.98;;
48526;SDS011;34317;51.660;5.824;2023-06-14T14:55:48;2.58;;;1.10;;
48526;SDS011;34317;51.660;5.824;2023-06-14T14:58:16;2.10;;;1.10;;
48526;SDS011;34317;51.660;5.824;2023-06-14T15:00:45;4.97;;;1.17;;
48526;SDS011;34317;51.660;5.824;2023-06-14T15:03:13;3.55;;;1.08;;
48526;SDS011;34317;51.660;5.824;2023-06-14T15:05:41;1.40;;;1.00;;
48526;SDS011;34317;51.660;5.824;2023-06-14T15:08:08;3.20;;;1.10;;
48526;SDS011;34317;51.660;5.824;2023-06-14T15:10:41;1.58;;;1.10;;
48526;SDS011;34317;51.660;5.824;2023-06-14T15:13:08;1.80;;;1.00;;
48526;SDS011;34317;51.660;5.824;2023-06-14T15:15:36;1.50;;;1.10;;
48526;SDS011;34317;51.660;5.824;2023-06-14T15:18:04;2.40;;;1.08;;